createdAt,value
2022-11-20T00:01:35.667Z,9.18
2022-11-20T00:11:37.975Z,11.13
2022-11-20T00:21:40.417Z,11.05
2022-11-20T00:31:42.604Z,8.38
2022-11-20T00:41:44.766Z,10.13
2022-11-20T00:51:47.051Z,21.73
2022-11-20T01:01:49.271Z,26.05
2022-11-20T01:11:51.513Z,16.08
2022-11-20T01:21:55.240Z,13.07
2022-11-20T01:31:57.427Z,10.13
2022-11-20T01:42:18.118Z,14.10
2022-11-20T01:52:32.791Z,12.10
2022-11-20T02:02:36.348Z,7.45
2022-11-20T02:12:56.834Z,3.78
2022-11-20T02:23:20.921Z,3.45
2022-11-20T02:33:23.095Z,21.70
2022-11-20T02:43:25.252Z,12.15
2022-11-20T02:53:27.412Z,11.68
2022-11-20T03:03:29.554Z,10.75
2022-11-20T03:13:31.810Z,14.77
2022-11-20T03:23:34.732Z,10.80
2022-11-20T03:33:37.264Z,12.23
2022-11-20T03:43:39.835Z,10.77
2022-11-20T03:53:43.909Z,13.38
2022-11-20T04:03:46.469Z,20.80
2022-11-20T04:13:57.561Z,20.25
2022-11-20T04:23:59.863Z,18.83
2022-11-20T04:34:04.157Z,16.40
2022-11-20T04:44:07.168Z,11.15
2022-11-20T04:54:10.573Z,14.80
2022-11-20T05:04:12.733Z,17.70
2022-11-20T05:14:14.903Z,19.58
2022-11-20T05:24:17.126Z,17.10
2022-11-20T05:34:19.279Z,15.30
2022-11-20T05:44:21.453Z,14.05
2022-11-20T05:54:23.630Z,13.35
2022-11-20T06:04:26.011Z,14.30
2022-11-20T06:14:28.211Z,13.55
2022-11-20T06:24:30.424Z,11.25
2022-11-20T06:34:32.563Z,5.55
2022-11-20T06:44:34.740Z,3.45
2022-11-20T06:54:36.885Z,2.80
2022-11-20T07:04:40.341Z,60.42
2022-11-20T07:14:42.542Z,75.38
2022-11-20T07:24:46.265Z,55.90
2022-11-20T07:34:48.695Z,50.70
2022-11-20T07:44:50.855Z,58.17
2022-11-20T07:54:52.998Z,56.40
2022-11-20T08:04:55.156Z,51.13
2022-11-20T08:15:00.002Z,52.38
2022-11-20T08:25:02.576Z,40.83
2022-11-20T08:35:05.451Z,45.75
2022-11-20T08:45:08.054Z,38.03
2022-11-20T08:55:11.074Z,48.65
2022-11-20T09:05:13.404Z,58.72
2022-11-20T09:15:15.699Z,44.80
2022-11-20T09:25:18.095Z,37.47
2022-11-20T09:35:20.251Z,31.60
2022-11-20T09:45:52.102Z,26.00
2022-11-20T09:55:56.349Z,33.50
2022-11-20T10:06:01.765Z,17.80
2022-11-20T10:16:06.805Z,35.65
2022-11-20T10:26:24.287Z,37.67
2022-11-20T10:36:35.565Z,18.17
2022-11-20T10:46:45.160Z,11.85
2022-11-20T10:56:51.415Z,12.52
2022-11-20T11:06:59.949Z,13.60
2022-11-20T11:17:02.171Z,18.98
2022-11-20T11:27:16.777Z,23.65
2022-11-20T11:37:25.191Z,16.38
2022-11-20T11:47:32.537Z,16.05
2022-11-20T11:57:52.133Z,21.77
2022-11-20T12:08:12.341Z,29.02
2022-11-20T12:18:21.290Z,43.50
2022-11-20T12:28:37.638Z,7.47
2022-11-20T12:38:57.918Z,16.70
2022-11-20T12:49:20.632Z,10.75
2022-11-20T12:59:35.078Z,21.00
2022-11-20T13:09:46.162Z,19.15
2022-11-20T13:19:55.127Z,11.07
2022-11-20T13:30:19.520Z,10.48
2022-11-20T13:40:24.099Z,11.23
2022-11-20T13:50:48.365Z,8.98
2022-11-20T14:00:59.482Z,10.13
2022-11-20T14:11:05.925Z,29.75
2022-11-20T14:21:10.475Z,15.55
2022-11-20T14:31:23.832Z,27.42
2022-11-20T14:41:26.127Z,49.20
2022-11-20T14:51:42.565Z,14.05
2022-11-20T15:01:58.127Z,13.18
2022-11-20T15:12:03.582Z,18.52
2022-11-20T15:22:14.332Z,16.27
2022-11-20T15:32:16.495Z,11.52
2022-11-20T15:42:18.777Z,15.10
2022-11-20T15:52:21.052Z,7.90
2022-11-20T16:02:23.229Z,6.28
2022-11-20T16:12:44.065Z,6.47
2022-11-20T16:22:46.589Z,6.88
2022-11-20T16:32:49.641Z,8.60
2022-11-20T16:42:52.096Z,8.98
2022-11-20T16:52:54.320Z,9.48
2022-11-20T17:02:56.496Z,6.45
2022-11-20T17:12:58.811Z,10.57
2022-11-20T17:23:01.075Z,7.25
2022-11-20T17:33:03.298Z,13.20
2022-11-20T17:43:05.635Z,10.68
2022-11-20T17:53:07.865Z,18.85
2022-11-20T18:03:10.092Z,9.52
2022-11-20T18:13:12.279Z,9.93
2022-11-20T18:23:14.502Z,10.98
2022-11-20T18:33:17.418Z,10.27
2022-11-20T18:43:38.026Z,12.68
2022-11-20T18:53:45.823Z,10.15
2022-11-20T19:03:49.591Z,17.42
2022-11-20T19:13:52.447Z,11.48
2022-11-20T19:23:56.631Z,10.82
2022-11-20T19:34:03.986Z,10.57
2022-11-20T19:44:09.805Z,16.27
2022-11-20T19:54:12.581Z,17.58
2022-11-20T20:04:14.882Z,10.10
2022-11-20T20:14:18.389Z,8.68
2022-11-20T20:24:20.652Z,8.15
2022-11-20T20:34:23.564Z,11.55
2022-11-20T20:44:44.526Z,13.93
2022-11-20T20:54:46.722Z,9.95
2022-11-20T21:04:49.546Z,8.57
2022-11-20T21:14:51.694Z,12.23
2022-11-20T21:24:53.939Z,18.33
2022-11-20T21:40:10.739Z,8.95
2022-11-20T21:50:12.982Z,7.35
2022-11-20T22:00:15.281Z,7.45
2022-11-20T22:10:18.849Z,7.85
2022-11-20T22:20:21.112Z,7.93
2022-11-20T22:30:23.316Z,10.30
2022-11-20T22:40:25.510Z,7.28
2022-11-20T22:50:27.706Z,6.78
2022-11-20T23:00:30.027Z,8.55
2022-11-20T23:10:32.215Z,8.32
2022-11-20T23:20:37.392Z,8.80
2022-11-20T23:30:39.616Z,13.48
2022-11-20T23:40:41.863Z,21.80
2022-11-20T23:50:45.098Z,32.70
